sensor_id;sensor_type;location;lat;lon;timestamp;temperature;humidity
24250;DHT22;12379;49.820;8.648;2023-06-26T00:00:52;22.10;93.20
24250;DHT22;12379;49.820;8.648;2023-06-26T00:03:17;22.10;93.20
24250;DHT22;12379;49.820;8.648;2023-06-26T00:05:43;22.10;93.60
24250;DHT22;12379;49.820;8.648;2023-06-26T00:08:08;22.00;94.20
24250;DHT22;12379;49.820;8.648;2023-06-26T00:10:34;22.00;94.20
24250;DHT22;12379;49.820;8.648;2023-06-26T00:13:00;22.00;94.50
24250;DHT22;12379;49.820;8.648;2023-06-26T00:15:26;22.00;95.30
24250;DHT22;12379;49.820;8.648;2023-06-26T00:17:51;22.00;95.70
24250;DHT22;12379;49.820;8.648;2023-06-26T00:20:17;22.10;95.80
24250;DHT22;12379;49.820;8.648;2023-06-26T00:22:44;22.10;96.20
24250;DHT22;12379;49.820;8.648;2023-06-26T00:25:10;22.10;96.30
24250;DHT22;12379;49.820;8.648;2023-06-26T00:27:36;22.10;96.70
24250;DHT22;12379;49.820;8.648;2023-06-26T00:30:01;22.10;96.70
24250;DHT22;12379;49.820;8.648;2023-06-26T00:32:27;22.10;96.90
24250;DHT22;12379;49.820;8.648;2023-06-26T00:34:52;22.00;97.70
24250;DHT22;12379;49.820;8.648;2023-06-26T00:37:18;21.90;98.10
24250;DHT22;12379;49.820;8.648;2023-06-26T00:39:44;21.90;98.40
24250;DHT22;12379;49.820;8.648;2023-06-26T00:42:09;21.90;98.60
24250;DHT22;12379;49.820;8.648;2023-06-26T00:44:35;21.80;98.70
24250;DHT22;12379;49.820;8.648;2023-06-26T00:47:01;21.80;98.70
24250;DHT22;12379;49.820;8.648;2023-06-26T00:49:27;21.70;99.20
24250;DHT22;12379;49.820;8.648;2023-06-26T00:51:53;21.60;99.90
24250;DHT22;12379;49.820;8.648;2023-06-26T00:54:20;21.60;99.90
24250;DHT22;12379;49.820;8.648;2023-06-26T00:56:48;21.60;99.90
24250;DHT22;12379;49.820;8.648;2023-06-26T00:59:13;21.60;99.90
24250;DHT22;12379;49.820;8.648;2023-06-26T01:01:39;21.60;99.90
24250;DHT22;12379;49.820;8.648;2023-06-26T01:04:05;21.60;99.90
24250;DHT22;12379;49.820;8.648;2023-06-26T01:06:32;21.40;99.90
24250;DHT22;12379;49.820;8.648;2023-06-26T01:09:01;21.30;99.90
24250;DHT22;12379;49.820;8.648;2023-06-26T01:11:26;21.30;99.90
24250;DHT22;12379;49.820;8.648;2023-06-26T01:13:52;21.20;99.90
24250;DHT22;12379;49.820;8.648;2023-06-26T01:16:20;21.20;99.90
24250;DHT22;12379;49.820;8.648;2023-06-26T01:18:46;21.20;99.90
24250;DHT22;12379;49.820;8.648;2023-06-26T01:21:14;21.30;99.90
24250;DHT22;12379;49.820;8.648;2023-06-26T01:24:08;21.30;99.90
24250;DHT22;12379;49.820;8.648;2023-06-26T01:26:36;21.20;99.90
24250;DHT22;12379;49.820;8.648;2023-06-26T01:29:04;21.00;99.90
24250;DHT22;12379;49.820;8.648;2023-06-26T01:31:31;20.90;99.90
24250;DHT22;12379;49.820;8.648;2023-06-26T01:33:58;20.90;99.90
24250;DHT22;12379;49.820;8.648;2023-06-26T01:36:25;20.90;99.90
24250;DHT22;12379;49.820;8.648;2023-06-26T01:38:50;20.90;99.90
24250;DHT22;12379;49.820;8.648;2023-06-26T01:41:17;20.80;99.90
24250;DHT22;12379;49.820;8.648;2023-06-26T01:44:03;20.80;99.90
24250;DHT22;12379;49.820;8.648;2023-06-26T01:52:00;20.60;99.90
24250;DHT22;12379;49.820;8.648;2023-06-26T01:54:30;20.60;99.90
24250;DHT22;12379;49.820;8.648;2023-06-26T01:56:59;20.70;99.90
24250;DHT22;12379;49.820;8.648;2023-06-26T01:59:27;20.60;99.90
24250;DHT22;12379;49.820;8.648;2023-06-26T02:01:54;20.60;99.90
24250;DHT22;12379;49.820;8.648;2023-06-26T02:04:19;20.60;99.90
24250;DHT22;12379;49.820;8.648;2023-06-26T02:06:45;20.70;99.90
24250;DHT22;12379;49.820;8.648;2023-06-26T02:09:11;20.60;99.90
24250;DHT22;12379;49.820;8.648;2023-06-26T02:11:36;20.60;99.90
24250;DHT22;12379;49.820;8.648;2023-06-26T02:14:02;20.60;99.90
24250;DHT22;12379;49.820;8.648;2023-06-26T02:16:28;20.50;99.90
24250;DHT22;12379;49.820;8.648;2023-06-26T02:18:54;20.60;99.90
24250;DHT22;12379;49.820;8.648;2023-06-26T02:21:20;20.70;99.90
24250;DHT22;12379;49.820;8.648;2023-06-26T02:23:45;20.70;99.90
24250;DHT22;12379;49.820;8.648;2023-06-26T02:26:11;20.70;99.90
24250;DHT22;12379;49.820;8.648;2023-06-26T02:28:36;20.60;99.90
24250;DHT22;12379;49.820;8.648;2023-06-26T02:31:02;20.60;99.90
24250;DHT22;12379;49.820;8.648;2023-06-26T02:33:27;20.60;99.90
24250;DHT22;12379;49.820;8.648;2023-06-26T02:35:53;20.50;99.90
24250;DHT22;12379;49.820;8.648;2023-06-26T02:38:18;20.50;99.90
24250;DHT22;12379;49.820;8.648;2023-06-26T02:40:44;20.50;99.90
24250;DHT22;12379;49.820;8.648;2023-06-26T02:43:09;20.50;99.90
24250;DHT22;12379;49.820;8.648;2023-06-26T02:45:35;20.50;99.90
24250;DHT22;12379;49.820;8.648;2023-06-26T02:48:00;20.40;99.90
24250;DHT22;12379;49.820;8.648;2023-06-26T02:50:26;20.40;99.90
24250;DHT22;12379;49.820;8.648;2023-06-26T02:52:51;20.40;99.90
24250;DHT22;12379;49.820;8.648;2023-06-26T02:55:18;20.30;99.90
24250;DHT22;12379;49.820;8.648;2023-06-26T02:57:45;20.20;99.90
24250;DHT22;12379;49.820;8.648;2023-06-26T03:00:11;20.10;99.90
24250;DHT22;12379;49.820;8.648;2023-06-26T03:02:37;20.10;99.90
24250;DHT22;12379;49.820;8.648;2023-06-26T03:05:02;20.10;99.90
24250;DHT22;12379;49.820;8.648;2023-06-26T03:07:29;20.00;99.90
24250;DHT22;12379;49.820;8.648;2023-06-26T03:09:54;20.10;99.90
24250;DHT22;12379;49.820;8.648;2023-06-26T03:12:20;20.10;99.90
24250;DHT22;12379;49.820;8.648;2023-06-26T03:14:45;20.10;99.90
24250;DHT22;12379;49.820;8.648;2023-06-26T03:17:11;20.10;99.90
24250;DHT22;12379;49.820;8.648;2023-06-26T03:19:36;20.00;99.90
24250;DHT22;12379;49.820;8.648;2023-06-26T03:22:02;20.10;99.90
24250;DHT22;12379;49.820;8.648;2023-06-26T03:24:29;20.00;99.90
24250;DHT22;12379;49.820;8.648;2023-06-26T03:26:54;20.00;99.90
24250;DHT22;12379;49.820;8.648;2023-06-26T03:29:20;19.90;99.90
24250;DHT22;12379;49.820;8.648;2023-06-26T03:31:45;19.80;99.90
24250;DHT22;12379;49.820;8.648;2023-06-26T03:34:11;19.80;99.90
24250;DHT22;12379;49.820;8.648;2023-06-26T03:36:36;19.70;99.90
24250;DHT22;12379;49.820;8.648;2023-06-26T03:39:02;19.70;99.90
24250;DHT22;12379;49.820;8.648;2023-06-26T03:41:29;19.70;99.90
24250;DHT22;12379;49.820;8.648;2023-06-26T03:43:55;19.80;99.90
24250;DHT22;12379;49.820;8.648;2023-06-26T03:46:22;19.70;99.90
24250;DHT22;12379;49.820;8.648;2023-06-26T03:48:48;19.70;99.90
24250;DHT22;12379;49.820;8.648;2023-06-26T03:51:14;19.70;99.90
24250;DHT22;12379;49.820;8.648;2023-06-26T03:53:39;19.70;99.90
24250;DHT22;12379;49.820;8.648;2023-06-26T03:56:05;19.70;99.90
24250;DHT22;12379;49.820;8.648;2023-06-26T03:58:30;19.70;99.90
24250;DHT22;12379;49.820;8.648;2023-06-26T04:00:56;19.60;99.90
24250;DHT22;12379;49.820;8.648;2023-06-26T04:03:23;19.50;99.90
24250;DHT22;12379;49.820;8.648;2023-06-26T04:05:49;19.60;99.90
24250;DHT22;12379;49.820;8.648;2023-06-26T04:08:14;19.60;99.90
24250;DHT22;12379;49.820;8.648;2023-06-26T04:10:40;19.70;99.90
24250;DHT22;12379;49.820;8.648;2023-06-26T04:13:05;19.60;99.90
24250;DHT22;12379;49.820;8.648;2023-06-26T04:15:31;19.60;99.90
24250;DHT22;12379;49.820;8.648;2023-06-26T04:17:56;19.70;99.90
24250;DHT22;12379;49.820;8.648;2023-06-26T04:20:22;19.70;99.90
24250;DHT22;12379;49.820;8.648;2023-06-26T04:22:47;19.70;99.90
24250;DHT22;12379;49.820;8.648;2023-06-26T04:25:13;19.60;99.90
24250;DHT22;12379;49.820;8.648;2023-06-26T04:27:39;19.60;99.90
24250;DHT22;12379;49.820;8.648;2023-06-26T04:30:04;19.60;99.90
24250;DHT22;12379;49.820;8.648;2023-06-26T04:32:30;19.70;99.90
24250;DHT22;12379;49.820;8.648;2023-06-26T04:34:56;19.80;99.90
24250;DHT22;12379;49.820;8.648;2023-06-26T04:37:22;19.90;99.90
24250;DHT22;12379;49.820;8.648;2023-06-26T04:39:48;20.00;99.90
24250;DHT22;12379;49.820;8.648;2023-06-26T04:42:14;20.20;99.90
24250;DHT22;12379;49.820;8.648;2023-06-26T04:44:40;20.30;99.90
24250;DHT22;12379;49.820;8.648;2023-06-26T04:47:07;20.40;99.90
24250;DHT22;12379;49.820;8.648;2023-06-26T04:49:33;20.50;99.90
24250;DHT22;12379;49.820;8.648;2023-06-26T04:51:58;20.60;99.90
24250;DHT22;12379;49.820;8.648;2023-06-26T04:54:26;20.70;99.90
24250;DHT22;12379;49.820;8.648;2023-06-26T04:56:51;20.80;99.90
24250;DHT22;12379;49.820;8.648;2023-06-26T04:59:17;21.00;99.90
24250;DHT22;12379;49.820;8.648;2023-06-26T05:01:42;21.20;99.90
24250;DHT22;12379;49.820;8.648;2023-06-26T05:04:14;21.20;99.90
24250;DHT22;12379;49.820;8.648;2023-06-26T05:06:40;21.30;99.90
24250;DHT22;12379;49.820;8.648;2023-06-26T05:09:06;21.40;99.90
24250;DHT22;12379;49.820;8.648;2023-06-26T05:11:31;21.40;99.90
24250;DHT22;12379;49.820;8.648;2023-06-26T05:13:57;21.40;99.90
24250;DHT22;12379;49.820;8.648;2023-06-26T05:16:22;21.40;99.90
24250;DHT22;12379;49.820;8.648;2023-06-26T05:18:48;21.50;99.90
24250;DHT22;12379;49.820;8.648;2023-06-26T05:21:13;21.50;99.90
24250;DHT22;12379;49.820;8.648;2023-06-26T05:23:41;21.60;99.90
24250;DHT22;12379;49.820;8.648;2023-06-26T05:26:10;21.60;99.90
24250;DHT22;12379;49.820;8.648;2023-06-26T05:28:36;21.70;99.90
24250;DHT22;12379;49.820;8.648;2023-06-26T05:31:03;21.80;99.90
24250;DHT22;12379;49.820;8.648;2023-06-26T05:33:35;21.90;99.90
24250;DHT22;12379;49.820;8.648;2023-06-26T05:36:04;21.90;99.90
24250;DHT22;12379;49.820;8.648;2023-06-26T05:38:30;22.10;99.90
24250;DHT22;12379;49.820;8.648;2023-06-26T05:40:56;22.30;99.90
24250;DHT22;12379;49.820;8.648;2023-06-26T05:43:22;22.40;99.90
24250;DHT22;12379;49.820;8.648;2023-06-26T05:45:48;22.70;99.90
24250;DHT22;12379;49.820;8.648;2023-06-26T05:48:14;23.00;99.90
24250;DHT22;12379;49.820;8.648;2023-06-26T05:50:40;23.60;99.90
24250;DHT22;12379;49.820;8.648;2023-06-26T05:53:07;24.20;99.40
24250;DHT22;12379;49.820;8.648;2023-06-26T05:55:33;24.70;99.00
24250;DHT22;12379;49.820;8.648;2023-06-26T05:58:00;25.20;97.80
24250;DHT22;12379;49.820;8.648;2023-06-26T06:00:27;25.70;96.80
24250;DHT22;12379;49.820;8.648;2023-06-26T06:02:53;26.40;95.60
24250;DHT22;12379;49.820;8.648;2023-06-26T06:05:22;26.90;94.40
24250;DHT22;12379;49.820;8.648;2023-06-26T06:07:49;27.20;93.20
24250;DHT22;12379;49.820;8.648;2023-06-26T06:10:15;27.30;92.60
24250;DHT22;12379;49.820;8.648;2023-06-26T06:12:40;28.20;91.40
24250;DHT22;12379;49.820;8.648;2023-06-26T06:15:06;28.30;91.00
24250;DHT22;12379;49.820;8.648;2023-06-26T06:17:32;28.60;89.90
24250;DHT22;12379;49.820;8.648;2023-06-26T06:19:57;28.40;89.00
24250;DHT22;12379;49.820;8.648;2023-06-26T06:22:23;28.50;89.70
24250;DHT22;12379;49.820;8.648;2023-06-26T06:24:49;29.20;86.50
24250;DHT22;12379;49.820;8.648;2023-06-26T06:27:15;29.10;85.60
24250;DHT22;12379;49.820;8.648;2023-06-26T06:29:41;29.10;84.50
24250;DHT22;12379;49.820;8.648;2023-06-26T06:32:07;29.00;84.20
24250;DHT22;12379;49.820;8.648;2023-06-26T06:34:32;29.00;83.60
24250;DHT22;12379;49.820;8.648;2023-06-26T06:36:58;29.20;84.00
24250;DHT22;12379;49.820;8.648;2023-06-26T06:39:23;29.40;82.80
24250;DHT22;12379;49.820;8.648;2023-06-26T06:41:49;30.00;82.00
24250;DHT22;12379;49.820;8.648;2023-06-26T06:44:14;30.50;80.20
24250;DHT22;12379;49.820;8.648;2023-06-26T06:46:40;30.70;77.20
24250;DHT22;12379;49.820;8.648;2023-06-26T06:49:05;30.90;74.70
24250;DHT22;12379;49.820;8.648;2023-06-26T06:51:31;30.70;74.70
24250;DHT22;12379;49.820;8.648;2023-06-26T06:53:56;31.10;72.50
24250;DHT22;12379;49.820;8.648;2023-06-26T06:56:22;31.60;72.10
24250;DHT22;12379;49.820;8.648;2023-06-26T06:58:47;31.50;70.70
24250;DHT22;12379;49.820;8.648;2023-06-26T07:01:13;32.20;68.50
24250;DHT22;12379;49.820;8.648;2023-06-26T07:03:39;32.50;66.70
24250;DHT22;12379;49.820;8.648;2023-06-26T07:06:05;32.70;64.10
24250;DHT22;12379;49.820;8.648;2023-06-26T07:08:31;32.60;63.40
24250;DHT22;12379;49.820;8.648;2023-06-26T07:10:56;32.50;63.40
24250;DHT22;12379;49.820;8.648;2023-06-26T07:13:22;32.50;63.10
24250;DHT22;12379;49.820;8.648;2023-06-26T07:15:48;32.40;59.20
24250;DHT22;12379;49.820;8.648;2023-06-26T07:18:14;31.90;59.40
24250;DHT22;12379;49.820;8.648;2023-06-26T07:20:40;32.10;58.50
24250;DHT22;12379;49.820;8.648;2023-06-26T07:23:05;32.20;58.30
24250;DHT22;12379;49.820;8.648;2023-06-26T07:25:31;33.00;56.70
24250;DHT22;12379;49.820;8.648;2023-06-26T07:27:57;33.60;55.20
24250;DHT22;12379;49.820;8.648;2023-06-26T07:30:22;33.50;54.50
24250;DHT22;12379;49.820;8.648;2023-06-26T07:32:49;33.30;53.90
24250;DHT22;12379;49.820;8.648;2023-06-26T07:35:15;33.00;53.90
24250;DHT22;12379;49.820;8.648;2023-06-26T07:37:40;32.80;54.20
24250;DHT22;12379;49.820;8.648;2023-06-26T07:40:06;32.80;54.30
24250;DHT22;12379;49.820;8.648;2023-06-26T07:42:32;33.20;54.90
24250;DHT22;12379;49.820;8.648;2023-06-26T07:44:58;33.70;52.70
24250;DHT22;12379;49.820;8.648;2023-06-26T07:47:23;32.90;53.00
24250;DHT22;12379;49.820;8.648;2023-06-26T07:49:49;32.70;54.00
24250;DHT22;12379;49.820;8.648;2023-06-26T07:52:15;32.70;54.80
24250;DHT22;12379;49.820;8.648;2023-06-26T07:54:40;32.70;54.90
24250;DHT22;12379;49.820;8.648;2023-06-26T07:57:06;32.90;55.00
24250;DHT22;12379;49.820;8.648;2023-06-26T07:59:32;33.00;55.50
24250;DHT22;12379;49.820;8.648;2023-06-26T08:01:58;33.40;55.40
24250;DHT22;12379;49.820;8.648;2023-06-26T08:04:26;33.40;54.40
24250;DHT22;12379;49.820;8.648;2023-06-26T08:06:54;33.40;54.00
24250;DHT22;12379;49.820;8.648;2023-06-26T08:09:22;33.50;53.60
24250;DHT22;12379;49.820;8.648;2023-06-26T08:11:47;33.10;54.70
24250;DHT22;12379;49.820;8.648;2023-06-26T08:14:13;32.90;54.90
24250;DHT22;12379;49.820;8.648;2023-06-26T08:16:40;33.00;55.00
24250;DHT22;12379;49.820;8.648;2023-06-26T08:19:24;33.20;54.20
24250;DHT22;12379;49.820;8.648;2023-06-26T08:21:51;33.50;54.30
24250;DHT22;12379;49.820;8.648;2023-06-26T08:24:17;33.40;54.30
24250;DHT22;12379;49.820;8.648;2023-06-26T08:26:45;33.20;54.50
24250;DHT22;12379;49.820;8.648;2023-06-26T08:37:44;33.30;54.50
24250;DHT22;12379;49.820;8.648;2023-06-26T08:40:10;33.40;54.10
24250;DHT22;12379;49.820;8.648;2023-06-26T08:42:36;33.50;52.80
24250;DHT22;12379;49.820;8.648;2023-06-26T08:45:01;33.20;53.40
24250;DHT22;12379;49.820;8.648;2023-06-26T08:47:28;33.20;53.80
24250;DHT22;12379;49.820;8.648;2023-06-26T08:50:07;33.20;53.80
24250;DHT22;12379;49.820;8.648;2023-06-26T08:52:37;33.50;53.60
24250;DHT22;12379;49.820;8.648;2023-06-26T08:55:09;33.20;53.90
24250;DHT22;12379;49.820;8.648;2023-06-26T08:57:36;33.00;53.40
24250;DHT22;12379;49.820;8.648;2023-06-26T09:00:02;32.80;54.30
24250;DHT22;12379;49.820;8.648;2023-06-26T09:02:29;32.60;54.60
24250;DHT22;12379;49.820;8.648;2023-06-26T09:04:54;32.20;56.00
24250;DHT22;12379;49.820;8.648;2023-06-26T09:07:20;32.30;55.30
24250;DHT22;12379;49.820;8.648;2023-06-26T09:09:46;32.40;55.30
24250;DHT22;12379;49.820;8.648;2023-06-26T09:12:12;32.40;55.00
24250;DHT22;12379;49.820;8.648;2023-06-26T09:14:38;31.80;56.30
24250;DHT22;12379;49.820;8.648;2023-06-26T09:17:04;32.30;56.80
24250;DHT22;12379;49.820;8.648;2023-06-26T09:19:30;32.80;56.10
24250;DHT22;12379;49.820;8.648;2023-06-26T09:21:55;32.80;55.70
24250;DHT22;12379;49.820;8.648;2023-06-26T09:24:22;32.20;56.10
24250;DHT22;12379;49.820;8.648;2023-06-26T09:26:48;32.30;55.60
24250;DHT22;12379;49.820;8.648;2023-06-26T09:29:15;32.70;54.80
24250;DHT22;12379;49.820;8.648;2023-06-26T09:31:43;32.90;53.50
24250;DHT22;12379;49.820;8.648;2023-06-26T09:34:09;32.60;53.50
24250;DHT22;12379;49.820;8.648;2023-06-26T09:36:36;32.60;53.60
24250;DHT22;12379;49.820;8.648;2023-06-26T09:39:03;32.60;52.80
24250;DHT22;12379;49.820;8.648;2023-06-26T09:41:30;32.80;53.20
24250;DHT22;12379;49.820;8.648;2023-06-26T09:43:58;32.60;52.80
24250;DHT22;12379;49.820;8.648;2023-06-26T09:46:27;32.80;53.70
24250;DHT22;12379;49.820;8.648;2023-06-26T09:51:24;33.30;52.60
24250;DHT22;12379;49.820;8.648;2023-06-26T09:53:49;33.20;52.70
24250;DHT22;12379;49.820;8.648;2023-06-26T09:56:17;32.80;53.30
24250;DHT22;12379;49.820;8.648;2023-06-26T09:58:47;32.80;53.20
24250;DHT22;12379;49.820;8.648;2023-06-26T10:01:13;32.40;53.70
24250;DHT22;12379;49.820;8.648;2023-06-26T10:03:39;32.10;54.60
24250;DHT22;12379;49.820;8.648;2023-06-26T10:06:05;31.70;55.10
24250;DHT22;12379;49.820;8.648;2023-06-26T10:08:34;31.30;56.40
24250;DHT22;12379;49.820;8.648;2023-06-26T10:11:01;31.30;56.70
24250;DHT22;12379;49.820;8.648;2023-06-26T10:13:37;31.10;57.00
24250;DHT22;12379;49.820;8.648;2023-06-26T10:16:05;30.50;58.00
24250;DHT22;12379;49.820;8.648;2023-06-26T10:18:32;30.20;59.20
24250;DHT22;12379;49.820;8.648;2023-06-26T10:21:01;30.10;59.50
24250;DHT22;12379;49.820;8.648;2023-06-26T10:23:28;29.80;59.90
24250;DHT22;12379;49.820;8.648;2023-06-26T10:25:55;29.70;60.70
24250;DHT22;12379;49.820;8.648;2023-06-26T10:28:23;29.80;61.10
24250;DHT22;12379;49.820;8.648;2023-06-26T10:30:52;29.90;61.20
24250;DHT22;12379;49.820;8.648;2023-06-26T10:33:18;30.00;61.40
24250;DHT22;12379;49.820;8.648;2023-06-26T10:35:44;30.10;62.00
24250;DHT22;12379;49.820;8.648;2023-06-26T10:38:10;30.30;61.00
24250;DHT22;12379;49.820;8.648;2023-06-26T10:40:45;30.40;60.60
24250;DHT22;12379;49.820;8.648;2023-06-26T10:43:13;30.70;60.50
24250;DHT22;12379;49.820;8.648;2023-06-26T10:45:46;30.70;60.30
24250;DHT22;12379;49.820;8.648;2023-06-26T10:48:15;30.70;59.40
24250;DHT22;12379;49.820;8.648;2023-06-26T10:50:41;30.60;60.00
24250;DHT22;12379;49.820;8.648;2023-06-26T10:53:23;30.80;60.40
24250;DHT22;12379;49.820;8.648;2023-06-26T10:56:03;31.10;59.80
24250;DHT22;12379;49.820;8.648;2023-06-26T10:58:30;31.00;58.90
24250;DHT22;12379;49.820;8.648;2023-06-26T11:03:38;30.80;60.00
24250;DHT22;12379;49.820;8.648;2023-06-26T11:06:20;30.70;60.00
24250;DHT22;12379;49.820;8.648;2023-06-26T11:08:54;30.70;59.90
24250;DHT22;12379;49.820;8.648;2023-06-26T11:11:21;30.80;60.20
24250;DHT22;12379;49.820;8.648;2023-06-26T11:13:48;30.90;59.90
24250;DHT22;12379;49.820;8.648;2023-06-26T11:16:14;30.90;60.20
24250;DHT22;12379;49.820;8.648;2023-06-26T11:18:41;31.00;60.10
24250;DHT22;12379;49.820;8.648;2023-06-26T11:21:11;31.20;60.00
24250;DHT22;12379;49.820;8.648;2023-06-26T11:23:39;31.30;59.10
24250;DHT22;12379;49.820;8.648;2023-06-26T11:26:19;31.30;59.00
24250;DHT22;12379;49.820;8.648;2023-06-26T11:28:51;31.30;58.50
24250;DHT22;12379;49.820;8.648;2023-06-26T11:31:34;31.20;59.10
24250;DHT22;12379;49.820;8.648;2023-06-26T11:34:02;31.30;58.90
24250;DHT22;12379;49.820;8.648;2023-06-26T11:36:29;31.30;58.80
24250;DHT22;12379;49.820;8.648;2023-06-26T11:39:02;31.20;58.50
24250;DHT22;12379;49.820;8.648;2023-06-26T11:41:30;31.10;58.50
24250;DHT22;12379;49.820;8.648;2023-06-26T11:44:00;30.90;58.60
24250;DHT22;12379;49.820;8.648;2023-06-26T11:46:25;31.00;58.90
24250;DHT22;12379;49.820;8.648;2023-06-26T11:48:52;31.20;58.50
24250;DHT22;12379;49.820;8.648;2023-06-26T11:51:17;31.40;57.50
24250;DHT22;12379;49.820;8.648;2023-06-26T11:53:44;31.20;57.00
24250;DHT22;12379;49.820;8.648;2023-06-26T11:56:19;31.00;57.40
24250;DHT22;12379;49.820;8.648;2023-06-26T11:59:01;31.00;57.10
24250;DHT22;12379;49.820;8.648;2023-06-26T12:01:35;31.10;57.10
24250;DHT22;12379;49.820;8.648;2023-06-26T12:04:03;31.30;56.20
24250;DHT22;12379;49.820;8.648;2023-06-26T12:06:30;31.40;56.00
24250;DHT22;12379;49.820;8.648;2023-06-26T12:08:58;31.30;55.70
24250;DHT22;12379;49.820;8.648;2023-06-26T12:11:24;31.40;56.60
24250;DHT22;12379;49.820;8.648;2023-06-26T12:13:50;31.10;55.60
24250;DHT22;12379;49.820;8.648;2023-06-26T12:16:17;31.10;55.50
24250;DHT22;12379;49.820;8.648;2023-06-26T12:18:42;31.20;55.40
24250;DHT22;12379;49.820;8.648;2023-06-26T12:21:08;31.00;55.00
24250;DHT22;12379;49.820;8.648;2023-06-26T12:23:39;31.20;55.40
24250;DHT22;12379;49.820;8.648;2023-06-26T12:26:21;31.20;54.80
24250;DHT22;12379;49.820;8.648;2023-06-26T12:28:47;31.00;54.70
24250;DHT22;12379;49.820;8.648;2023-06-26T12:31:16;31.00;54.60
24250;DHT22;12379;49.820;8.648;2023-06-26T12:33:43;31.10;54.50
24250;DHT22;12379;49.820;8.648;2023-06-26T12:36:13;31.10;53.90
24250;DHT22;12379;49.820;8.648;2023-06-26T12:38:40;31.30;53.30
24250;DHT22;12379;49.820;8.648;2023-06-26T12:41:15;31.10;53.20
24250;DHT22;12379;49.820;8.648;2023-06-26T12:43:42;30.80;53.00
24250;DHT22;12379;49.820;8.648;2023-06-26T12:46:08;30.80;53.40
24250;DHT22;12379;49.820;8.648;2023-06-26T12:48:43;31.10;52.80
24250;DHT22;12379;49.820;8.648;2023-06-26T12:51:16;31.20;52.90
24250;DHT22;12379;49.820;8.648;2023-06-26T12:53:43;31.10;52.50
24250;DHT22;12379;49.820;8.648;2023-06-26T12:56:09;31.00;52.20
24250;DHT22;12379;49.820;8.648;2023-06-26T12:58:36;31.10;51.90
24250;DHT22;12379;49.820;8.648;2023-06-26T13:01:06;31.10;51.40
24250;DHT22;12379;49.820;8.648;2023-06-26T13:03:40;31.20;51.60
24250;DHT22;12379;49.820;8.648;2023-06-26T13:06:06;31.30;50.70
24250;DHT22;12379;49.820;8.648;2023-06-26T13:08:33;31.10;51.00
24250;DHT22;12379;49.820;8.648;2023-06-26T13:11:02;31.00;50.90
24250;DHT22;12379;49.820;8.648;2023-06-26T13:13:28;31.10;51.30
24250;DHT22;12379;49.820;8.648;2023-06-26T13:15:53;31.40;50.00
24250;DHT22;12379;49.820;8.648;2023-06-26T13:18:19;31.30;49.40
24250;DHT22;12379;49.820;8.648;2023-06-26T13:20:45;31.20;48.80
24250;DHT22;12379;49.820;8.648;2023-06-26T13:23:11;31.10;48.90
24250;DHT22;12379;49.820;8.648;2023-06-26T13:25:36;31.00;48.30
24250;DHT22;12379;49.820;8.648;2023-06-26T13:28:02;30.80;47.80
24250;DHT22;12379;49.820;8.648;2023-06-26T13:30:28;30.70;47.40
24250;DHT22;12379;49.820;8.648;2023-06-26T13:32:53;30.50;47.70
24250;DHT22;12379;49.820;8.648;2023-06-26T13:35:19;30.30;47.70
24250;DHT22;12379;49.820;8.648;2023-06-26T13:37:44;30.20;48.20
24250;DHT22;12379;49.820;8.648;2023-06-26T13:40:12;30.50;47.70
24250;DHT22;12379;49.820;8.648;2023-06-26T13:42:38;30.70;47.00
24250;DHT22;12379;49.820;8.648;2023-06-26T13:45:05;31.00;46.80
24250;DHT22;12379;49.820;8.648;2023-06-26T13:47:34;31.10;45.30
24250;DHT22;12379;49.820;8.648;2023-06-26T13:50:00;31.30;45.10
24250;DHT22;12379;49.820;8.648;2023-06-26T13:52:25;31.20;45.50
24250;DHT22;12379;49.820;8.648;2023-06-26T13:54:51;31.00;44.50
24250;DHT22;12379;49.820;8.648;2023-06-26T13:57:17;31.00;44.80
24250;DHT22;12379;49.820;8.648;2023-06-26T13:59:42;30.90;44.20
24250;DHT22;12379;49.820;8.648;2023-06-26T14:02:08;30.90;44.40
24250;DHT22;12379;49.820;8.648;2023-06-26T14:04:33;30.70;44.50
24250;DHT22;12379;49.820;8.648;2023-06-26T14:06:59;30.50;44.60
24250;DHT22;12379;49.820;8.648;2023-06-26T14:09:25;30.50;44.50
24250;DHT22;12379;49.820;8.648;2023-06-26T14:11:50;30.50;45.20
24250;DHT22;12379;49.820;8.648;2023-06-26T14:14:16;30.60;45.20
24250;DHT22;12379;49.820;8.648;2023-06-26T14:16:42;30.60;45.20
24250;DHT22;12379;49.820;8.648;2023-06-26T14:19:07;30.60;45.20
24250;DHT22;12379;49.820;8.648;2023-06-26T14:21:35;30.70;45.20
24250;DHT22;12379;49.820;8.648;2023-06-26T14:24:01;30.40;44.00
24250;DHT22;12379;49.820;8.648;2023-06-26T14:26:27;30.60;43.10
24250;DHT22;12379;49.820;8.648;2023-06-26T14:28:57;30.70;42.50
24250;DHT22;12379;49.820;8.648;2023-06-26T14:31:23;30.60;42.20
24250;DHT22;12379;49.820;8.648;2023-06-26T14:33:48;30.50;44.80
24250;DHT22;12379;49.820;8.648;2023-06-26T14:36:14;30.70;44.50
24250;DHT22;12379;49.820;8.648;2023-06-26T14:38:53;30.80;44.10
24250;DHT22;12379;49.820;8.648;2023-06-26T14:41:18;30.80;43.80
24250;DHT22;12379;49.820;8.648;2023-06-26T14:43:44;30.70;44.30
24250;DHT22;12379;49.820;8.648;2023-06-26T14:46:11;30.50;43.30
24250;DHT22;12379;49.820;8.648;2023-06-26T14:48:36;30.50;43.20
24250;DHT22;12379;49.820;8.648;2023-06-26T14:51:02;30.20;42.80
24250;DHT22;12379;49.820;8.648;2023-06-26T14:53:27;30.20;43.10
24250;DHT22;12379;49.820;8.648;2023-06-26T14:55:59;30.30;42.20
24250;DHT22;12379;49.820;8.648;2023-06-26T14:58:24;30.20;41.90
24250;DHT22;12379;49.820;8.648;2023-06-26T15:00:50;30.20;41.40
24250;DHT22;12379;49.820;8.648;2023-06-26T15:03:15;30.10;41.10
24250;DHT22;12379;49.820;8.648;2023-06-26T15:05:41;30.20;41.20
24250;DHT22;12379;49.820;8.648;2023-06-26T15:08:06;30.40;41.70
24250;DHT22;12379;49.820;8.648;2023-06-26T15:10:32;30.40;41.20
24250;DHT22;12379;49.820;8.648;2023-06-26T15:12:58;30.40;41.00
24250;DHT22;12379;49.820;8.648;2023-06-26T15:15:24;30.60;40.40
24250;DHT22;12379;49.820;8.648;2023-06-26T15:17:50;30.50;40.70
24250;DHT22;12379;49.820;8.648;2023-06-26T15:20:15;30.50;40.70
24250;DHT22;12379;49.820;8.648;2023-06-26T15:22:41;30.20;39.40
24250;DHT22;12379;49.820;8.648;2023-06-26T15:25:07;30.20;38.70
24250;DHT22;12379;49.820;8.648;2023-06-26T15:27:33;30.00;38.20
24250;DHT22;12379;49.820;8.648;2023-06-26T15:29:59;29.90;39.80
24250;DHT22;12379;49.820;8.648;2023-06-26T15:32:24;29.90;40.80
24250;DHT22;12379;49.820;8.648;2023-06-26T15:34:50;30.00;48.00
24250;DHT22;12379;49.820;8.648;2023-06-26T15:37:15;29.90;50.90
24250;DHT22;12379;49.820;8.648;2023-06-26T15:39:42;29.80;51.30
24250;DHT22;12379;49.820;8.648;2023-06-26T15:42:08;29.80;51.40
24250;DHT22;12379;49.820;8.648;2023-06-26T15:44:33;29.70;51.50
24250;DHT22;12379;49.820;8.648;2023-06-26T15:46:59;29.40;51.30